Carolina Forest, South Carolina
Current Conditions -  °F | °C
As of 10:45 AM on Wednesday 28 Jan 2015 (Local Time) from KMYR Reporting Station
Clear Clear  
Wind Chill: -2°   Ceiling: Unl
Heat Index:   Visibility: 10mi
Dew Point: -8°   Wind: 15mph
Humidity: 45%   Direction: 10°N
Pressure: 30.27"   Gusts: NA
Location:  33.7109°N, 78.9964°W
Report Text: KMYR 281545Z 01013KT 10SM CLR 03/M08 A3027
Loading
Personal Weather Stations






























Interactive Weather Map New forecast layout! Learn more

10-Day Weather Forecast

Advertisements
Track Severe Weather on mobile